Middle Georgia Regional Airport
KMCN : now visible

Airfield :











YOU CAN JOIN US ON...

 
LOGIN :

Register | Disclaimer

   EN    FR    IT 

 









Legend :    VFR   Marginal VFR   IFR   Intensive IFR   Very Intensive IFR
Visi :
Ceiling :
>= 8 km
>= 3000ft
5 to 8 km
1000 to 3000 ft
1500m to 5 km
500 to 1000 ft
800 to 1500m
200 to 500 ft
< 800m
< 200 ft
Symbols :   Thunderstorms  Fog  Heavy snow  Heavy precipitations  Wind > 20 kt






- Airport Elevation : 354 ft
- IATA code : MCN


KMCN - Middle Georgia Regional

CURRENT METAR :
  • 100253Z AUTO 30006KT 10SM FEW050 SCT110 25/23 A2993 RMK AO2 RAB23E36 SLP128 P0000 60000 T02500228 53014

EXPIRED METARs :
  • 100153Z AUTO 27009KT 10SM CLR 26/22 A2991 RMK AO2 SLP123 T02610222
  • 100053Z AUTO 27008KT 10SM FEW110 27/22 A2990 RMK AO2 LTG DSNT SW AND W SLP118 T02670222

TAF KMCN
Valid from the 10 at 00:00 until the 11 at 00:00 UTC


092345Z 1000/1024 32004KT P6SM SCT025 BKN040
FM100300 00000KT P6SM SCT250
FM101400 31003KT P6SM FEW030
FM101800 29007KT P6SM VCSH SCT040
PROB30 1018/1022 3SM TSRA BKN030CB
KZTL FIR / North America



MET'MAP, your aeronautical weather chart ! - Copyright ORBIFLY December 2007 - Disclaimer

ORBIFLY MET'MAP TEAM :

Programming & Development : Alexandra Zaïnal
Concept & original design : Baudouin d'Aumeries
Assistance for programming : Marc-Olivier Méhu
Technical & hardware support : Manuel Goepfert

Contact : metmap@orbifly.com




SOURCES & CREDITS :

   NOAA       Earth
Advisory